Lyman, SC

2:39 PM EST on December 26, 2014 (GMT -0500)
Northview Acres | Change Station
CLOSE
Current Station
Personal Weather Station
Location: Lyman, SC
Elevation: 938 ft
Nearby Weather Stations

Elev 938 ft 34.96 °N, 82.13 °W | Updated 9 minutes ago

Clear
Clear
58.4 °F
Feels Like 58.4 °F
N
4.0
Wind Variable Wind from SSE
Gusts 4.0 mph

Today
High -- | Low -- °F
--% Chance of Precip.
Yesterday
High -- | Low -- °F
Precip. -- in
7:34 AM 5:23 PM
Waxing Crescent, 28% visible
Pressure 30.27 in
Visibility 10.0 miles
Clouds Clear
Dew Point 33 °F
Humidity 38%
Rainfall 0.02 in
Snow Depth Not available.
UV 3 out of 12
Pollen 1.50 out of 12
Air Quality Not available.
Flu Activity Not available.
METAR KGSP 261853Z 20007KT 10SM CLR 14/01 A3027 RMK AO2 SLP250 T01440006

More Conditions Fewer Conditions

Pressure 30.27 in
Visibility 10.0 miles
Clouds Clear
Dew Point 33 °F
Humidity 38%
Rainfall 0.02 in
Snow Depth Not available.
UV 3 out of 12
Pollen 1.50 out of 12
Air Quality Not available.
Flu Activity Not available.
METAR KGSP 261853Z 20007KT 10SM CLR 14/01 A3027 RMK AO2 SLP250 T01440006

More Conditions Fewer Conditions

10-Day Weather Forecast

Almanac

Astronomy

Dec. 26, 2014 Rise Set
Actual Time
Civil Twilight
Nautical Twilight
Astronomical Twilight
Moon
Length of Visible Light
Length of Day
Tomorrow will be .
, % of the Moon is Illuminated

Today's Extremes

State Highs State Lows

Community

WunderPhotos

Upload Photos

1,780,675 photos uploaded!

WunderBlogs® & News

Nearby

Air Quality

  Air Quality AQ Index Pollutant
Not available.

Snow Depth

Station Depth Elevation

Earthquake Activity

City Distance Mag. Time & Date
Minimum magnitude displayed is 2.5.

Coastal Water Temperatures

Place Temperature

Nearby Weather Stations